Clallam Bay, Washington
Current Conditions -  °F | °C
As of 8:53 AM on Wednesday 22 Oct 2014 (Local Time) from KUIL Reporting Station
Moderate Fog Moderate Fog  
Wind Chill: 48°   Ceiling: 1000
Heat Index: 48°   Visibility: 0.5mi
Dew Point: 48°   Wind: 3mph
Humidity: 100%   Direction: 80°E
Pressure: 29.65"   Gusts: NA
Location:  48.25°N, 124.26°W
Report Text: KUIL 221553Z AUTO 08003KT 1/2SM FG VV010 09/09 A2965 RMK AO2 SLP040 T00890089
Loading
Personal Weather Stations






























Interactive Weather Map
Tropical Storm Tracking
New forecast layout! Learn more

10-Day Weather Forecast

Advertisements
Track Severe Weather on mobile